KEVW/EVW METAR and TAF weather

Enter ICAO airport designator
Station Type Date Time Source
KEVW METAR 2019/05/20 09:53 UTC NOAA

KEVW 200953Z AUTO 27008KT 10SM OVC100 01/M02 A2968 RMK AO2 SLP019 T00111017 $


Station Type Date Time Source
KEVW Decoded METAR 2019/05/20 09:53 UTC NOAA

EVANSTON-UINTA COUNTY FIELD, WY, United States (KEVW) 41-16N 111-02W 2177M
May 20, 2019 - 05:53 AM EDT / 2019.05.20 0953 UTC
Wind: from the W (270 degrees) at 9 MPH (8 KT):0
Visibility: 10 mile(s):0
Sky conditions: overcast
Temperature: 34.0 F (1.1 C)
Windchill: 26 F (-3 C):1
Dew Point: 28.9 F (-1.7 C)
Relative Humidity: 81%
Pressure (altimeter): 29.68 in. Hg (1005 hPa)
ob: KEVW 200953Z AUTO 27008KT 10SM OVC100 01/M02 A2968 RMK AO2 SLP019 T00111017
cycle: 10

Station Type Date Time Source
KEVW TAF 2019/05/20 06:52 UTC NOAA

TAF KEVW 200549Z 2006/2106 24008KT P6SM VCSH SCT030 BKN060
TEMPO 2006/2009 6SM -SHRASN SCT010 BKN050

Example: see airport list